TimeCST,TemperatureF,Dew PointF,Humidity,Sea Level PressureIn,VisibilityMPH,Wind Direction,Wind SpeedMPH,Gust SpeedMPH,PrecipitationIn,Events,Conditions,WindDirDegrees,DateUTC
12:15 AM,15.6,10.8,81,30.03,10.0,West,8.1,-,N/A,,Overcast,270,2012-12-29 06:15:00
12:35 AM,15.4,10.9,82,30.03,10.0,West,10.4,-,N/A,,Scattered Clouds,270,2012-12-29 06:35:00
12:55 AM,14.2,9.5,82,30.03,10.0,West,9.2,-,N/A,,Clear,280,2012-12-29 06:55:00
1:15 AM,13.1,9.0,84,30.03,10.0,West,4.6,-,N/A,,Clear,280,2012-12-29 07:15:00
1:35 AM,13.3,9.5,85,30.03,10.0,West,5.8,-,N/A,,Clear,280,2012-12-29 07:35:00
1:55 AM,12.4,8.6,85,30.03,10.0,West,4.6,-,N/A,,Clear,270,2012-12-29 07:55:00
2:15 AM,11.8,8.2,85,30.03,10.0,West,6.9,-,N/A,,Clear,280,2012-12-29 08:15:00
2:35 AM,11.8,8.1,85,30.04,10.0,West,8.1,-,N/A,,Clear,270,2012-12-29 08:35:00
2:55 AM,10.9,6.8,83,30.05,10.0,West,6.9,-,N/A,,Clear,280,2012-12-29 08:55:00
3:15 AM,10.2,6.1,83,30.05,10.0,West,5.8,-,N/A,,Clear,260,2012-12-29 09:15:00
3:35 AM,12.0,7.5,82,30.06,10.0,West,6.9,-,N/A,,Clear,260,2012-12-29 09:35:00
3:55 AM,10.9,6.1,81,30.06,10.0,West,4.6,-,N/A,,Clear,270,2012-12-29 09:55:00
4:15 AM,11.3,6.8,82,30.06,10.0,West,4.6,-,N/A,,Clear,270,2012-12-29 10:15:00
4:35 AM,11.5,6.8,81,30.06,10.0,West,4.6,-,N/A,,Clear,260,2012-12-29 10:35:00
4:55 AM,9.9,6.4,86,30.06,10.0,WSW,5.8,-,N/A,,Clear,250,2012-12-29 10:55:00
5:15 AM,12.4,7.7,82,30.06,10.0,WSW,5.8,-,N/A,,Clear,250,2012-12-29 11:15:00
5:35 AM,12.2,7.5,82,30.07,10.0,WSW,8.1,-,N/A,,Clear,250,2012-12-29 11:35:00
5:55 AM,14.0,8.6,79,30.07,10.0,WSW,5.8,-,N/A,,Clear,250,2012-12-29 11:55:00
6:15 AM,14.2,9.9,83,30.07,10.0,West,6.9,-,N/A,,Clear,260,2012-12-29 12:15:00
6:35 AM,15.4,10.8,82,30.07,10.0,WSW,8.1,-,N/A,,Clear,250,2012-12-29 12:35:00
6:55 AM,14.0,9.7,83,30.07,10.0,West,5.8,-,N/A,,Clear,260,2012-12-29 12:55:00
7:15 AM,15.4,10.4,80,30.08,10.0,West,6.9,-,N/A,,Clear,260,2012-12-29 13:15:00
7:35 AM,14.0,9.3,82,30.08,10.0,West,5.8,-,N/A,,Clear,260,2012-12-29 13:35:00
7:55 AM,15.6,10.4,80,30.08,10.0,West,10.4,-,N/A,,Clear,270,2012-12-29 13:55:00
8:15 AM,16.0,10.4,79,30.08,10.0,West,9.2,-,N/A,,Clear,260,2012-12-29 14:15:00
8:35 AM,15.4,9.5,77,30.08,10.0,West,5.8,-,N/A,,Clear,260,2012-12-29 14:35:00
8:55 AM,16.5,10.6,77,30.09,10.0,West,8.1,-,N/A,,Clear,270,2012-12-29 14:55:00
9:15 AM,18.0,11.3,75,30.09,10.0,West,8.1,-,N/A,,Clear,270,2012-12-29 15:15:00
9:35 AM,19.2,11.8,73,30.10,10.0,West,6.9,-,N/A,,Clear,260,2012-12-29 15:35:00
9:55 AM,20.5,12.7,72,30.10,10.0,West,6.9,-,N/A,,Clear,270,2012-12-29 15:55:00
10:15 AM,22.3,14.0,71,30.11,10.0,West,8.1,-,N/A,,Clear,270,2012-12-29 16:15:00
10:35 AM,23.7,14.5,68,30.12,10.0,West,8.1,-,N/A,,Clear,270,2012-12-29 16:35:00
10:55 AM,24.8,15.3,67,30.13,10.0,West,9.2,-,N/A,,Clear,270,2012-12-29 16:55:00
11:15 AM,25.5,15.4,66,30.13,10.0,West,9.2,-,N/A,,Clear,280,2012-12-29 17:15:00
11:35 AM,26.8,16.5,65,30.12,10.0,West,6.9,-,N/A,,Clear,270,2012-12-29 17:35:00
11:55 AM,28.0,17.6,65,30.12,10.0,West,6.9,-,N/A,,Clear,260,2012-12-29 17:55:00
12:15 PM,29.1,18.5,65,30.11,10.0,West,9.2,-,N/A,,Clear,270,2012-12-29 18:15:00
12:35 PM,30.2,19.2,64,30.10,10.0,West,6.9,-,N/A,,Clear,260,2012-12-29 18:35:00
12:55 PM,31.1,19.9,63,30.10,10.0,West,6.9,-,N/A,,Clear,270,2012-12-29 18:55:00
1:15 PM,30.9,19.4,62,30.10,10.0,West,11.5,-,N/A,,Clear,270,2012-12-29 19:15:00
1:35 PM,31.1,19.4,62,30.09,10.0,West,10.4,-,N/A,,Clear,280,2012-12-29 19:35:00
1:55 PM,32.0,21.0,64,30.09,10.0,West,8.1,-,N/A,,Clear,270,2012-12-29 19:55:00
2:15 PM,32.0,21.2,64,30.09,10.0,West,8.1,-,N/A,,Clear,280,2012-12-29 20:15:00
2:35 PM,32.4,21.0,63,30.09,10.0,West,10.4,-,N/A,,Clear,260,2012-12-29 20:35:00
2:55 PM,32.0,21.0,64,30.09,10.0,West,9.2,-,N/A,,Clear,260,2012-12-29 20:55:00
3:15 PM,31.8,22.5,68,30.09,10.0,WSW,6.9,-,N/A,,Clear,240,2012-12-29 21:15:00
3:35 PM,31.6,22.1,68,30.09,10.0,WSW,6.9,-,N/A,,Clear,250,2012-12-29 21:35:00
3:55 PM,31.1,21.0,66,30.09,10.0,WSW,10.4,-,N/A,,Clear,250,2012-12-29 21:55:00
4:15 PM,30.9,20.3,65,30.09,10.0,WSW,8.1,-,N/A,,Clear,250,2012-12-29 22:15:00
4:35 PM,27.3,19.4,72,30.08,10.0,WSW,8.1,-,N/A,,Clear,240,2012-12-29 22:35:00
4:55 PM,26.6,19.4,74,30.09,10.0,WSW,8.1,-,N/A,,Clear,240,2012-12-29 22:55:00
5:15 PM,23.4,16.0,73,30.09,10.0,SW,8.1,-,N/A,,Clear,230,2012-12-29 23:15:00
5:35 PM,21.7,16.3,80,30.09,10.0,WSW,5.8,-,N/A,,Clear,240,2012-12-29 23:35:00
5:55 PM,21.0,15.3,78,30.08,10.0,SW,5.8,-,N/A,,Clear,230,2012-12-29 23:55:00
6:15 PM,19.2,14.0,80,30.09,10.0,SW,8.1,-,N/A,,Clear,230,2012-12-30 00:15:00
6:35 PM,19.2,13.6,79,30.09,10.0,SW,8.1,-,N/A,,Clear,220,2012-12-30 00:35:00
6:55 PM,19.4,13.1,76,30.09,10.0,SW,9.2,-,N/A,,Clear,230,2012-12-30 00:55:00
7:15 PM,20.3,13.8,76,30.09,10.0,SW,8.1,-,N/A,,Clear,220,2012-12-30 01:15:00
7:35 PM,19.9,13.1,75,30.09,10.0,SSW,5.8,-,N/A,,Clear,200,2012-12-30 01:35:00
7:55 PM,21.0,13.6,73,30.09,10.0,SSW,4.6,-,N/A,,Clear,200,2012-12-30 01:55:00
8:15 PM,18.1,12.0,77,30.09,10.0,SSW,6.9,-,N/A,,Clear,210,2012-12-30 02:15:00
8:35 PM,18.5,12.2,76,30.09,10.0,SW,4.6,-,N/A,,Clear,220,2012-12-30 02:35:00
8:55 PM,19.4,12.6,75,30.08,10.0,SSW,3.5,-,N/A,,Clear,200,2012-12-30 02:55:00
9:15 PM,19.9,12.6,73,30.08,10.0,Calm,Calm,-,N/A,,Clear,0,2012-12-30 03:15:00
9:35 PM,18.9,11.3,72,30.07,10.0,South,4.6,-,N/A,,Clear,190,2012-12-30 03:35:00
9:55 PM,17.6,11.1,76,30.07,10.0,SSW,6.9,-,N/A,,Clear,210,2012-12-30 03:55:00
10:15 PM,19.6,12.9,75,30.07,10.0,South,4.6,-,N/A,,Clear,190,2012-12-30 04:15:00
10:35 PM,18.0,11.5,76,30.07,10.0,South,6.9,-,N/A,,Clear,190,2012-12-30 04:35:00
10:55 PM,17.1,11.1,77,30.06,10.0,South,4.6,-,N/A,,Clear,190,2012-12-30 04:55:00
11:15 PM,19.2,13.1,77,30.06,10.0,SSW,4.6,-,N/A,,Clear,210,2012-12-30 05:15:00
11:35 PM,21.4,13.8,73,30.05,10.0,SSW,8.1,-,N/A,,Clear,210,2012-12-30 05:35:00
11:55 PM,23.0,14.4,70,30.05,10.0,SSW,10.4,-,N/A,,Clear,210,2012-12-30 05:55:00